createdAt,value
2022-12-19T00:01:39.311Z,21.64
2022-12-19T00:06:43.702Z,21.54
2022-12-19T00:11:49.421Z,21.36
2022-12-19T00:16:54.491Z,21.25
2022-12-19T00:21:57.289Z,21.04
2022-12-19T00:27:00.121Z,21.00
2022-12-19T00:32:06.505Z,20.78
2022-12-19T00:37:09.523Z,20.65
2022-12-19T00:42:12.309Z,20.55
2022-12-19T00:47:16.403Z,20.48
2022-12-19T00:52:19.198Z,20.37
2022-12-19T00:57:21.981Z,20.30
2022-12-19T01:02:26.265Z,20.29
2022-12-19T01:07:30.340Z,20.22
2022-12-19T01:12:48.924Z,20.13
2022-12-19T01:17:53.202Z,20.11
2022-12-19T01:22:56.123Z,20.04
2022-12-19T01:28:03.477Z,20.00
2022-12-19T01:33:12.356Z,19.96
2022-12-19T01:38:17.051Z,19.87
2022-12-19T01:43:20.349Z,19.83
2022-12-19T01:48:33.078Z,19.78
2022-12-19T01:53:48.483Z,19.74
2022-12-19T01:59:05.978Z,19.68
2022-12-19T02:04:14.791Z,19.66
2022-12-19T02:09:18.359Z,19.61
2022-12-19T02:14:21.976Z,19.53
2022-12-19T02:20:03.399Z,19.46
2022-12-19T02:25:32.134Z,19.44
2022-12-19T02:30:54.723Z,19.37
2022-12-19T02:36:08.580Z,19.31
2022-12-19T02:41:21.663Z,19.31
2022-12-19T02:46:27.926Z,19.31
2022-12-19T02:51:31.616Z,19.26
2022-12-19T02:56:48.778Z,19.25
2022-12-19T03:01:58.478Z,19.21
2022-12-19T03:07:10.426Z,19.20
2022-12-19T03:12:21.778Z,19.18
2022-12-19T03:17:27.188Z,19.15
2022-12-19T03:22:30.021Z,19.15
2022-12-19T03:27:39.303Z,19.12
2022-12-19T03:32:47.798Z,19.13
2022-12-19T03:37:53.432Z,19.09
2022-12-19T03:43:11.332Z,19.07
2022-12-19T03:48:20.938Z,19.06
2022-12-19T03:53:39.377Z,19.05
2022-12-19T03:58:48.780Z,19.05
2022-12-19T04:03:53.579Z,19.03
2022-12-19T04:08:58.067Z,19.03
2022-12-19T04:14:04.974Z,19.03
2022-12-19T04:19:16.838Z,19.02
2022-12-19T04:24:24.430Z,19.07
2022-12-19T04:29:32.007Z,19.01
2022-12-19T04:34:40.173Z,19.02
2022-12-19T04:39:45.602Z,19.07
2022-12-19T04:44:48.390Z,18.99
2022-12-19T04:49:52.492Z,18.93
2022-12-19T04:54:55.393Z,18.91
2022-12-19T04:59:58.338Z,18.88
2022-12-19T05:05:03.108Z,18.86
2022-12-19T05:10:07.206Z,18.85
2022-12-19T05:15:11.789Z,18.84
2022-12-19T05:20:16.009Z,18.84
2022-12-19T05:25:18.804Z,18.84
2022-12-19T05:30:23.290Z,18.81
2022-12-19T05:35:27.432Z,18.80
2022-12-19T05:40:30.612Z,18.80
2022-12-19T05:45:33.375Z,18.78
2022-12-19T05:50:37.844Z,18.76
2022-12-19T05:55:46.010Z,18.74
2022-12-19T06:00:48.765Z,18.75
2022-12-19T06:05:52.967Z,18.74
2022-12-19T06:10:55.793Z,18.74
2022-12-19T06:15:59.819Z,18.74
2022-12-19T06:21:06.206Z,18.70
2022-12-19T06:26:17.076Z,18.70
2022-12-19T06:31:24.679Z,18.69
2022-12-19T06:36:30.381Z,18.68
2022-12-19T06:41:50.649Z,18.66
2022-12-19T06:46:53.830Z,18.66
2022-12-19T06:51:57.957Z,18.67
2022-12-19T06:57:01.308Z,18.63
2022-12-19T07:02:16.901Z,18.64
2022-12-19T07:07:21.108Z,18.62
2022-12-19T07:12:23.844Z,18.61
2022-12-19T07:17:28.392Z,18.60
2022-12-19T07:22:35.402Z,18.59
2022-12-19T07:27:38.556Z,18.56
2022-12-19T07:32:41.400Z,18.57
2022-12-19T07:37:45.699Z,18.54
2022-12-19T07:42:48.518Z,18.55
2022-12-19T07:47:51.693Z,18.54
2022-12-19T07:52:56.730Z,18.52
2022-12-19T07:58:00.409Z,18.49
2022-12-19T08:03:03.725Z,15.24
2022-12-19T08:08:09.991Z,14.39
2022-12-19T08:13:12.729Z,13.55
2022-12-19T08:18:15.582Z,15.18
2022-12-19T08:23:24.281Z,16.62
2022-12-19T08:28:27.226Z,17.18
2022-12-19T08:33:30.028Z,17.59
2022-12-19T08:38:34.443Z,17.94
2022-12-19T08:43:38.133Z,18.22
2022-12-19T08:48:40.921Z,18.41
2022-12-19T08:53:46.623Z,18.55
2022-12-19T08:58:51.747Z,18.69
2022-12-19T09:04:12.967Z,18.79
2022-12-19T09:09:18.957Z,18.87
2022-12-19T09:14:21.955Z,18.93
2022-12-19T09:19:24.737Z,18.97
2022-12-19T09:24:29.087Z,19.04
2022-12-19T09:29:35.355Z,19.08
2022-12-19T09:34:39.284Z,19.10
2022-12-19T09:39:43.632Z,19.16
2022-12-19T09:45:05.968Z,19.20
2022-12-19T09:50:31.584Z,19.28
2022-12-19T09:55:40.360Z,19.34
2022-12-19T10:00:46.305Z,19.38
2022-12-19T10:06:31.183Z,19.39
2022-12-19T10:12:43.618Z,19.41
2022-12-19T10:17:24.116Z,19.45
2022-12-19T10:22:38.580Z,19.41
2022-12-19T10:27:59.311Z,19.38
2022-12-19T10:33:20.014Z,19.39
2022-12-19T10:38:30.253Z,19.38
2022-12-19T10:43:46.576Z,19.35
2022-12-19T10:48:52.262Z,19.31
2022-12-19T10:53:56.952Z,19.33
2022-12-19T10:59:02.714Z,19.31
2022-12-19T11:04:27.610Z,19.33
2022-12-19T11:09:32.463Z,19.35
2022-12-19T11:20:39.186Z,19.35
2022-12-19T11:29:25.720Z,19.35
2022-12-19T11:29:36.674Z,19.33
2022-12-19T11:36:40.028Z,19.31
2022-12-19T11:41:47.400Z,19.30
2022-12-19T11:46:58.027Z,19.28
2022-12-19T11:52:36.931Z,19.29
2022-12-19T11:57:37.129Z,19.28
2022-12-19T12:03:15.535Z,19.24
2022-12-19T12:10:52.550Z,19.29
2022-12-19T12:26:48.981Z,19.28
2022-12-19T12:31:10.539Z,19.27
2022-12-19T12:32:04.670Z,19.29
2022-12-19T12:42:20.999Z,19.31
2022-12-19T12:47:25.645Z,19.34
2022-12-19T12:52:35.195Z,19.32
2022-12-19T12:57:39.087Z,19.34
2022-12-19T13:02:42.944Z,19.33
2022-12-19T13:07:53.209Z,19.35
2022-12-19T13:13:02.399Z,19.36
2022-12-19T13:18:33.231Z,19.38
2022-12-19T13:24:16.008Z,17.14
2022-12-19T13:29:48.945Z,15.21
2022-12-19T13:35:04.755Z,17.55
2022-12-19T13:40:32.698Z,18.35
2022-12-19T13:45:40.822Z,18.71
2022-12-19T13:50:47.694Z,18.94
2022-12-19T13:55:55.542Z,19.13
2022-12-19T14:01:08.441Z,19.25
2022-12-19T14:06:27.458Z,19.33
2022-12-19T14:12:08.398Z,19.36
2022-12-19T14:17:07.289Z,19.41
2022-12-19T14:22:22.897Z,19.37
2022-12-19T14:28:21.386Z,19.39
2022-12-19T14:33:44.777Z,19.38
2022-12-19T14:39:24.342Z,19.34
2022-12-19T14:52:25.238Z,19.33
2022-12-19T14:54:01.974Z,19.32
2022-12-19T14:56:09.322Z,19.27
2022-12-19T15:01:09.020Z,19.24
2022-12-19T15:07:06.060Z,19.34
2022-12-19T15:14:47.460Z,19.45
2022-12-19T15:17:26.921Z,19.60
2022-12-19T15:22:31.196Z,19.70
2022-12-19T15:27:34.186Z,19.81
2022-12-19T15:32:37.071Z,19.98
2022-12-19T15:37:41.727Z,20.04
2022-12-19T15:42:47.218Z,20.17
2022-12-19T15:47:50.382Z,20.26
2022-12-19T15:52:57.592Z,20.34
2022-12-19T15:58:04.995Z,20.42
2022-12-19T16:03:22.940Z,20.51
2022-12-19T16:08:29.082Z,20.54
2022-12-19T16:13:35.607Z,20.62
2022-12-19T16:18:38.435Z,20.66
2022-12-19T16:23:43.022Z,20.72
2022-12-19T16:28:45.864Z,20.80
2022-12-19T16:33:48.770Z,20.80
2022-12-19T16:38:52.967Z,20.85
2022-12-19T16:43:57.080Z,20.89
2022-12-19T16:49:00.391Z,21.00
2022-12-19T16:54:04.756Z,21.00
2022-12-19T16:59:16.313Z,21.01
2022-12-19T17:04:21.524Z,21.13
2022-12-19T17:09:26.049Z,21.18
2022-12-19T17:14:32.070Z,21.21
2022-12-19T17:19:38.763Z,21.35
2022-12-19T17:24:43.041Z,21.48
2022-12-19T17:29:47.067Z,21.57
2022-12-19T17:34:49.838Z,21.70
2022-12-19T17:39:54.911Z,21.73
2022-12-19T17:44:57.755Z,21.72
2022-12-19T17:50:00.764Z,21.69
2022-12-19T17:55:17.612Z,21.61
2022-12-19T18:00:29.943Z,21.59
2022-12-19T18:05:35.734Z,21.57
2022-12-19T18:10:39.923Z,21.55
2022-12-19T18:15:42.822Z,21.67
2022-12-19T18:20:46.067Z,21.56
2022-12-19T18:25:56.103Z,21.65
2022-12-19T18:31:07.701Z,21.68
2022-12-19T18:36:18.748Z,21.69
2022-12-19T18:41:23.447Z,21.70
2022-12-19T18:46:29.366Z,21.61
2022-12-19T18:51:32.248Z,21.61
2022-12-19T18:56:36.450Z,21.69
2022-12-19T19:01:42.941Z,21.71
2022-12-19T19:06:50.790Z,21.69
2022-12-19T19:11:55.966Z,21.73
2022-12-19T19:16:58.906Z,21.66
2022-12-19T19:22:01.887Z,21.70
2022-12-19T19:27:07.479Z,21.74
2022-12-19T19:32:10.986Z,21.71
2022-12-19T19:37:16.398Z,21.64
2022-12-19T19:42:20.878Z,21.71
2022-12-19T19:47:26.879Z,21.74
2022-12-19T19:52:30.207Z,21.68
2022-12-19T19:57:34.862Z,21.68
2022-12-19T20:02:37.880Z,21.74
2022-12-19T20:07:40.964Z,21.72
2022-12-19T20:12:46.577Z,21.67
2022-12-19T20:17:51.454Z,21.64
2022-12-19T20:22:54.771Z,21.70
2022-12-19T20:27:59.027Z,21.65
2022-12-19T20:33:01.752Z,21.62
2022-12-19T20:38:04.990Z,21.61
2022-12-19T20:43:09.104Z,21.61
2022-12-19T20:48:12.287Z,21.60
2022-12-19T20:53:15.163Z,21.58
2022-12-19T20:58:19.288Z,21.56
2022-12-19T21:03:30.253Z,21.57
2022-12-19T21:08:33.504Z,21.52
2022-12-19T21:13:39.231Z,21.56
2022-12-19T21:18:43.892Z,21.49
2022-12-19T21:23:47.218Z,21.51
2022-12-19T21:28:51.643Z,21.48
2022-12-19T21:33:56.151Z,21.53
2022-12-19T21:39:01.817Z,21.48
2022-12-19T21:44:06.240Z,21.45
2022-12-19T21:49:10.394Z,21.42
2022-12-19T21:54:13.353Z,21.47
2022-12-19T21:59:18.480Z,21.49
2022-12-19T22:04:23.726Z,21.51
2022-12-19T22:09:26.659Z,21.49
2022-12-19T22:14:30.777Z,21.45
2022-12-19T22:19:33.719Z,21.45
2022-12-19T22:24:36.978Z,21.50
2022-12-19T22:29:41.103Z,21.48
2022-12-19T22:34:44.054Z,21.43
2022-12-19T22:39:46.804Z,21.44
2022-12-19T22:44:51.032Z,21.41
2022-12-19T22:49:54.146Z,21.43
2022-12-19T22:54:57.008Z,21.44
2022-12-19T23:00:01.275Z,21.44
2022-12-19T23:05:06.297Z,21.47
2022-12-19T23:10:10.206Z,21.46
2022-12-19T23:15:14.834Z,21.45
2022-12-19T23:20:17.857Z,21.51
2022-12-19T23:25:20.943Z,21.49
2022-12-19T23:30:25.201Z,21.51
2022-12-19T23:35:28.015Z,21.43
2022-12-19T23:40:30.819Z,21.33
2022-12-19T23:45:39.004Z,21.31
2022-12-19T23:50:41.839Z,21.19
2022-12-19T23:55:44.687Z,21.05
